Time;durP1;ratioP1;P1;durP2;ratioP2;P2;SDS_P1;SDS_P2;PMS_P1;PMS_P2;Temp;Humidity;BMP_temperature;BMP_pressure;BME280_temperature;BME280_humidity;BME280_pressure;Samples;Min_cycle;Max_cycle;Signal;HPM_P1;HPM_P2
2023/08/05 00:02:04;;;;;;;10.35;3.70;;;15.10;87.60;;;;;;5073433;28;20096;-49
2023/08/05 00:04:33;;;;;;;9.45;4.18;;;15.10;87.90;;;;;;5072765;28;20025;-49
2023/08/05 00:07:00;;;;;;;9.05;4.30;;;15.10;87.90;;;;;;5073599;28;20060;-50
2023/08/05 00:09:27;;;;;;;6.35;3.88;;;15.10;87.90;;;;;;5073296;28;20099;-49
2023/08/05 00:11:56;;;;;;;7.90;4.25;;;15.10;88.00;;;;;;5055774;28;20028;-48
2023/08/05 00:14:23;;;;;;;7.35;3.90;;;15.10;88.00;;;;;;5072684;28;20061;-49
2023/08/05 00:16:49;;;;;;;6.65;3.75;;;15.00;87.90;;;;;;5073245;28;20319;-50
2023/08/05 00:19:17;;;;;;;4.85;2.90;;;15.00;87.80;;;;;;5054719;28;20537;-50
2023/08/05 00:21:44;;;;;;;9.75;4.28;;;15.10;87.80;;;;;;5072895;28;20194;-49
2023/08/05 00:24:11;;;;;;;6.25;3.53;;;15.10;87.80;;;;;;5055408;28;20071;-51
2023/08/05 00:26:38;;;;;;;9.13;3.50;;;15.00;87.60;;;;;;5072486;28;20056;-49
2023/08/05 00:29:04;;;;;;;6.30;3.38;;;15.00;87.60;;;;;;5038864;28;20348;-49
2023/08/05 00:31:29;;;;;;;8.02;3.63;;;15.00;87.60;;;;;;5072974;28;20033;-50
2023/08/05 00:33:59;;;;;;;7.20;3.72;;;15.00;87.50;;;;;;5072034;28;20029;-49
2023/08/05 00:36:25;;;;;;;5.32;3.50;;;15.00;87.50;;;;;;5072750;28;20032;-48
2023/08/05 00:38:57;;;;;;;7.85;3.33;;;14.90;87.30;;;;;;5071931;28;20036;-49
2023/08/05 00:41:26;;;;;;;7.30;3.90;;;14.90;87.20;;;;;;5072925;28;20429;-50
2023/08/05 00:43:55;;;;;;;8.93;3.50;;;14.90;87.20;;;;;;5072236;28;20056;-49
2023/08/05 00:46:25;;;;;;;7.00;4.30;;;14.90;87.20;;;;;;5072715;28;20021;-49
2023/08/05 00:48:55;;;;;;;9.93;3.67;;;14.90;87.30;;;;;;5072595;28;20036;-50
2023/08/05 00:51:25;;;;;;;6.95;3.50;;;14.90;87.30;;;;;;5050083;28;20029;-49
2023/08/05 00:53:52;;;;;;;7.47;4.07;;;14.90;87.30;;;;;;5035346;28;20688;-49
2023/08/05 00:56:19;;;;;;;8.13;4.50;;;14.90;87.60;;;;;;5052532;28;20029;-49
2023/08/05 00:58:46;;;;;;;6.75;3.83;;;14.90;87.70;;;;;;5034765;28;20450;-49
2023/08/05 01:01:13;;;;;;;5.57;3.85;;;14.90;87.90;;;;;;5035425;28;20037;-49
2023/08/05 01:03:39;;;;;;;7.20;4.47;;;14.90;88.00;;;;;;5035059;28;20361;-48
2023/08/05 01:06:14;;;;;;;7.47;4.55;;;14.90;88.20;;;;;;5061889;28;20093;-49
2023/08/05 01:08:42;;;;;;;7.88;4.10;;;14.80;88.30;;;;;;5054740;28;20032;-50
2023/08/05 01:11:12;;;;;;;7.30;3.83;;;14.90;88.40;;;;;;5071736;28;20041;-49
2023/08/05 01:13:45;;;;;;;12.40;5.13;;;14.80;88.10;;;;;;5037661;28;20465;-52
2023/08/05 01:16:11;;;;;;;9.88;5.00;;;14.80;88.10;;;;;;5052310;28;20086;-49
2023/08/05 01:18:39;;;;;;;11.38;4.25;;;14.80;88.20;;;;;;5052382;28;20028;-49
2023/08/05 01:21:25;;;;;;;10.65;3.72;;;14.80;88.30;;;;;;5052358;28;20316;-49
2023/08/05 01:24:03;;;;;;;6.85;3.70;;;14.80;88.10;;;;;;5066344;28;20028;-50
2023/08/05 01:26:32;;;;;;;6.57;3.47;;;14.80;88.00;;;;;;5054617;28;20024;-49
2023/08/05 01:28:58;;;;;;;7.55;4.03;;;14.70;87.90;;;;;;5072311;28;20572;-51
2023/08/05 01:31:27;;;;;;;4.95;3.08;;;14.80;87.90;;;;;;5054205;28;20086;-51
2023/08/05 01:33:52;;;;;;;9.05;3.85;;;14.80;88.10;;;;;;5071900;28;20043;-49
2023/08/05 01:36:25;;;;;;;7.63;3.88;;;14.80;88.20;;;;;;5071482;28;20453;-48
2023/08/05 01:38:52;;;;;;;7.85;3.63;;;14.80;88.20;;;;;;5072582;28;20089;-48
2023/08/05 01:41:19;;;;;;;7.10;3.67;;;14.80;88.00;;;;;;5072351;28;20037;-51
2023/08/05 01:43:48;;;;;;;6.20;4.13;;;14.90;88.00;;;;;;5054514;28;20024;-51
2023/08/05 01:46:15;;;;;;;8.15;4.88;;;14.90;88.00;;;;;;5053491;28;20025;-50
2023/08/05 01:48:41;;;;;;;9.60;3.85;;;14.80;87.90;;;;;;5075842;28;20150;-52
2023/08/05 01:51:09;;;;;;;9.25;4.68;;;14.90;87.90;;;;;;5076162;28;20059;-48
2023/08/05 01:53:34;;;;;;;5.05;3.50;;;14.90;87.90;;;;;;5075293;28;20420;-50
2023/08/05 01:56:01;;;;;;;7.05;3.35;;;14.80;87.90;;;;;;5075872;28;20036;-49
2023/08/05 01:58:28;;;;;;;7.97;3.80;;;14.80;87.90;;;;;;5075977;28;20025;-49
2023/08/05 02:00:54;;;;;;;6.65;3.42;;;14.90;88.10;;;;;;5058241;28;20048;-49
2023/08/05 02:03:21;;;;;;;7.30;3.47;;;14.90;88.20;;;;;;5075053;28;20406;-49
2023/08/05 02:05:48;;;;;;;10.57;4.28;;;14.90;88.20;;;;;;5075784;28;20017;-49
2023/08/05 02:08:15;;;;;;;6.35;3.58;;;14.90;88.20;;;;;;5075559;28;20039;-51
2023/08/05 02:10:42;;;;;;;8.05;4.10;;;14.90;88.10;;;;;;5057158;28;20039;-52
2023/08/05 02:13:08;;;;;;;5.93;3.67;;;14.80;88.10;;;;;;5075861;28;20108;-48
2023/08/05 02:15:39;;;;;;;6.50;3.67;;;14.80;88.20;;;;;;5075629;28;20080;-49
2023/08/05 02:18:06;;;;;;;7.07;3.05;;;14.90;88.30;;;;;;5074926;28;20311;-49
2023/08/05 02:20:34;;;;;;;7.40;3.50;;;14.90;88.40;;;;;;5075457;28;20364;-50
2023/08/05 02:23:03;;;;;;;8.07;3.83;;;14.90;88.50;;;;;;5075378;28;20020;-49
2023/08/05 02:25:29;;;;;;;8.45;3.30;;;14.80;88.50;;;;;;5075312;28;20036;-49
2023/08/05 02:27:56;;;;;;;6.60;4.20;;;14.80;88.50;;;;;;5074887;28;20051;-49
2023/08/05 02:30:21;;;;;;;8.02;3.80;;;14.80;88.70;;;;;;5075125;28;20036;-48
2023/08/05 02:32:48;;;;;;;8.15;4.20;;;14.80;88.70;;;;;;5074160;28;20063;-50
2023/08/05 02:35:17;;;;;;;8.20;4.32;;;14.80;88.70;;;;;;5075191;28;20044;-49
2023/08/05 02:37:46;;;;;;;6.57;3.85;;;14.80;88.80;;;;;;5057469;28;20037;-50
2023/08/05 02:40:13;;;;;;;5.57;3.72;;;14.80;88.80;;;;;;5074645;28;20071;-48
2023/08/05 02:42:40;;;;;;;7.35;3.42;;;14.80;88.70;;;;;;5075059;28;20021;-50
2023/08/05 02:45:07;;;;;;;9.98;4.82;;;14.70;88.70;;;;;;5075073;28;20099;-49
2023/08/05 02:47:36;;;;;;;7.68;3.75;;;14.80;88.80;;;;;;5056475;28;20024;-49
2023/08/05 02:50:03;;;;;;;5.18;3.63;;;14.80;88.70;;;;;;5074854;28;20036;-51
2023/08/05 02:52:30;;;;;;;11.73;4.45;;;14.80;88.70;;;;;;5074128;28;20050;-48
2023/08/05 02:54:59;;;;;;;6.15;3.53;;;14.80;88.60;;;;;;5074714;28;20456;-50
2023/08/05 02:57:26;;;;;;;6.75;4.25;;;14.70;88.60;;;;;;5074056;28;20440;-50
2023/08/05 02:59:53;;;;;;;8.63;4.15;;;14.80;88.70;;;;;;5073461;28;20027;-49
2023/08/05 03:02:20;;;;;;;9.18;4.00;;;14.80;88.50;;;;;;5074823;28;20032;-48
2023/08/05 03:04:48;;;;;;;8.05;3.63;;;14.80;88.50;;;;;;5073925;28;20024;-48
2023/08/05 03:07:14;;;;;;;5.30;3.58;;;14.80;88.50;;;;;;5074210;28;20143;-48
2023/08/05 03:09:41;;;;;;;7.95;4.00;;;14.80;88.60;;;;;;5056931;28;20032;-50
2023/08/05 03:12:08;;;;;;;10.63;4.50;;;14.80;88.50;;;;;;5056992;28;20044;-48
2023/08/05 03:14:35;;;;;;;9.02;4.28;;;14.80;88.40;;;;;;5074005;28;20098;-50
2023/08/05 03:17:02;;;;;;;9.30;3.67;;;14.70;88.30;;;;;;5074335;28;20396;-49
2023/08/05 03:19:30;;;;;;;7.78;3.55;;;14.70;88.30;;;;;;5074355;28;20020;-49
2023/08/05 03:21:56;;;;;;;6.82;3.75;;;14.60;88.30;;;;;;5073622;28;20837;-48
2023/08/05 03:24:23;;;;;;;6.43;3.70;;;14.60;88.30;;;;;;5073260;28;20074;-48
2023/08/05 03:26:52;;;;;;;5.78;3.83;;;14.60;88.40;;;;;;5074201;28;20029;-51
2023/08/05 03:29:18;;;;;;;4.88;3.05;;;14.60;88.50;;;;;;5074059;28;20067;-49
2023/08/05 03:31:44;;;;;;;6.28;3.60;;;14.60;88.60;;;;;;5073770;28;20072;-48
2023/08/05 03:34:10;;;;;;;6.70;3.42;;;14.60;88.70;;;;;;5055144;28;20063;-49
2023/08/05 03:36:37;;;;;;;5.18;3.47;;;14.60;88.70;;;;;;5073907;28;20107;-49
2023/08/05 03:39:04;;;;;;;5.20;3.42;;;14.60;88.70;;;;;;5073925;28;20410;-49
2023/08/05 03:41:35;;;;;;;5.32;4.00;;;14.60;88.60;;;;;;5073270;28;20040;-48
2023/08/05 03:44:02;;;;;;;6.80;3.92;;;14.60;88.60;;;;;;5074047;28;20021;-49
2023/08/05 03:46:28;;;;;;;8.32;3.47;;;14.60;88.60;;;;;;5055541;28;20066;-49
2023/08/05 03:48:56;;;;;;;5.00;3.33;;;14.60;88.70;;;;;;5073956;28;20330;-48
2023/08/05 03:51:23;;;;;;;10.02;4.55;;;14.60;88.80;;;;;;5073162;28;20036;-48
2023/08/05 03:53:49;;;;;;;9.00;3.58;;;14.60;88.90;;;;;;5073341;28;20036;-50
2023/08/05 03:56:19;;;;;;;8.73;3.85;;;14.60;88.80;;;;;;5073036;28;20021;-48
2023/08/05 03:58:46;;;;;;;5.18;3.97;;;14.60;88.80;;;;;;5073561;28;20056;-49
2023/08/05 04:01:16;;;;;;;4.97;3.58;;;14.60;88.90;;;;;;5073461;28;20032;-49
2023/08/05 04:03:44;;;;;;;5.97;3.65;;;14.60;89.00;;;;;;5073073;28;20025;-49
2023/08/05 04:06:14;;;;;;;6.15;3.65;;;14.60;89.10;;;;;;5073560;28;20048;-48
2023/08/05 04:08:45;;;;;;;7.20;3.80;;;14.70;89.00;;;;;;5051465;28;20048;-48
2023/08/05 04:11:12;;;;;;;8.88;4.60;;;14.60;88.90;;;;;;5052998;28;20517;-50
2023/08/05 04:13:39;;;;;;;6.85;3.92;;;14.60;89.10;;;;;;5060154;28;20425;-49
2023/08/05 04:16:08;;;;;;;15.45;4.35;;;14.70;89.10;;;;;;5073229;28;20026;-49
2023/08/05 04:18:36;;;;;;;5.82;3.92;;;14.70;89.20;;;;;;5073075;28;20028;-49
2023/08/05 04:21:04;;;;;;;6.00;3.60;;;14.70;89.30;;;;;;5073206;28;20036;-49
2023/08/05 04:23:36;;;;;;;6.80;3.75;;;14.70;89.20;;;;;;5073005;28;20067;-49
2023/08/05 04:26:04;;;;;;;7.97;3.97;;;14.70;89.30;;;;;;5072281;28;20093;-49
2023/08/05 04:28:35;;;;;;;7.72;4.07;;;14.70;89.20;;;;;;5073011;28;20016;-49
2023/08/05 04:31:01;;;;;;;5.47;3.17;;;14.70;89.30;;;;;;5072981;28;20481;-49
2023/08/05 04:33:28;;;;;;;12.98;4.50;;;14.70;89.40;;;;;;5072122;28;20120;-48
2023/08/05 04:35:57;;;;;;;7.85;4.20;;;14.80;89.40;;;;;;5072720;28;20125;-50
2023/08/05 04:38:24;;;;;;;6.18;3.58;;;14.80;89.40;;;;;;5072539;28;20029;-48
2023/08/05 04:40:53;;;;;;;7.30;3.95;;;14.80;89.40;;;;;;5073249;28;20318;-49
2023/08/05 04:43:20;;;;;;;5.60;3.65;;;14.90;89.30;;;;;;5072678;28;20043;-49
2023/08/05 04:45:50;;;;;;;10.85;4.25;;;14.90;89.30;;;;;;5039200;28;20051;-48
2023/08/05 04:48:20;;;;;;;7.50;3.45;;;14.90;89.30;;;;;;5072815;28;20020;-49
2023/08/05 04:50:47;;;;;;;6.95;3.67;;;14.90;89.30;;;;;;5072105;28;20032;-48
2023/08/05 04:53:16;;;;;;;5.60;3.90;;;14.90;89.20;;;;;;5054795;28;20036;-49
2023/08/05 04:55:45;;;;;;;9.52;4.43;;;15.00;89.30;;;;;;5071840;28;20048;-49
2023/08/05 04:58:12;;;;;;;6.18;3.38;;;15.00;89.10;;;;;;5072579;28;20461;-49
2023/08/05 05:00:39;;;;;;;8.88;3.15;;;15.10;89.20;;;;;;5072651;28;20053;-49
2023/08/05 05:03:07;;;;;;;6.28;3.72;;;15.10;89.10;;;;;;5071818;28;20060;-48
2023/08/05 05:05:38;;;;;;;8.85;3.67;;;15.10;89.00;;;;;;5072532;28;20025;-49
2023/08/05 05:08:05;;;;;;;5.28;3.35;;;15.20;89.10;;;;;;5072329;28;20111;-48
2023/08/05 05:10:32;;;;;;;5.47;3.97;;;15.20;89.20;;;;;;5071679;28;20086;-49
2023/08/05 05:13:01;;;;;;;5.90;3.83;;;15.30;89.20;;;;;;5072607;28;20352;-49
2023/08/05 05:15:28;;;;;;;5.43;2.97;;;15.40;89.30;;;;;;5071625;28;20036;-49
2023/08/05 05:17:55;;;;;;;7.10;4.07;;;15.40;89.10;;;;;;5053582;28;20346;-51
2023/08/05 05:20:24;;;;;;;8.07;4.03;;;15.50;89.20;;;;;;5072378;28;20362;-50
2023/08/05 05:22:51;;;;;;;5.32;3.53;;;15.60;89.10;;;;;;5074666;28;20032;-48
2023/08/05 05:25:18;;;;;;;6.07;3.13;;;15.70;89.00;;;;;;5076440;28;20025;-48
2023/08/05 05:27:45;;;;;;;5.75;3.72;;;15.80;88.70;;;;;;5075659;28;20047;-48
2023/08/05 05:30:14;;;;;;;6.07;3.38;;;15.80;88.50;;;;;;5076523;28;20021;-49
2023/08/05 05:32:41;;;;;;;6.60;3.50;;;15.90;88.60;;;;;;5076130;28;20028;-49
2023/08/05 05:35:07;;;;;;;7.63;3.28;;;15.90;88.20;;;;;;5075548;28;20123;-49
2023/08/05 05:37:34;;;;;;;7.43;3.90;;;15.90;88.10;;;;;;5076309;28;20036;-48
2023/08/05 05:40:00;;;;;;;4.50;2.92;;;15.90;88.00;;;;;;5075545;28;20063;-49
2023/08/05 05:42:30;;;;;;;6.32;3.15;;;15.90;88.10;;;;;;5076361;28;20028;-50
2023/08/05 05:44:56;;;;;;;6.25;3.08;;;15.90;88.10;;;;;;5076138;28;20024;-51
2023/08/05 05:47:22;;;;;;;5.65;3.40;;;15.90;87.90;;;;;;5058489;28;20020;-50
2023/08/05 05:49:49;;;;;;;5.32;3.20;;;15.90;87.30;;;;;;5075974;28;20048;-49
2023/08/05 05:52:16;;;;;;;8.30;3.42;;;15.90;87.40;;;;;;5076078;28;20024;-50
2023/08/05 05:54:46;;;;;;;4.75;2.85;;;15.90;87.40;;;;;;5075175;28;20629;-53
2023/08/05 05:57:13;;;;;;;7.88;3.80;;;15.90;87.60;;;;;;5075992;28;20040;-49
2023/08/05 05:59:40;;;;;;;4.57;3.25;;;15.90;87.70;;;;;;5053822;28;20079;-50
2023/08/05 06:02:07;;;;;;;8.90;3.85;;;15.90;87.80;;;;;;5055795;28;20433;-49
2023/08/05 06:04:33;;;;;;;8.25;4.50;;;15.90;88.00;;;;;;5055958;28;20396;-50
2023/08/05 06:07:01;;;;;;;12.65;3.95;;;15.90;87.80;;;;;;5062982;28;20109;-49
2023/08/05 06:09:29;;;;;;;6.80;3.58;;;15.90;87.90;;;;;;5075711;28;20017;-50
2023/08/05 06:11:59;;;;;;;7.18;4.07;;;16.00;88.20;;;;;;5075670;28;20348;-49
2023/08/05 06:14:28;;;;;;;6.38;3.47;;;16.00;88.20;;;;;;5058096;28;20065;-49
2023/08/05 06:16:55;;;;;;;8.13;3.72;;;16.00;88.30;;;;;;5075564;28;20119;-49
2023/08/05 06:19:22;;;;;;;6.22;3.55;;;16.00;88.20;;;;;;5069172;28;20040;-48
2023/08/05 06:21:49;;;;;;;9.15;4.45;;;16.10;88.10;;;;;;5074783;28;20348;-49
2023/08/05 06:24:15;;;;;;;10.90;3.83;;;16.00;87.80;;;;;;5037703;28;20031;-49
2023/08/05 06:26:44;;;;;;;7.20;3.25;;;16.00;88.00;;;;;;5062942;28;20035;-49
2023/08/05 06:29:11;;;;;;;5.97;3.20;;;16.10;87.90;;;;;;5057577;28;20047;-48
2023/08/05 06:31:38;;;;;;;7.10;3.38;;;16.20;87.90;;;;;;5074802;28;20028;-49
2023/08/05 06:34:05;;;;;;;7.05;4.25;;;16.20;87.60;;;;;;5073685;28;20127;-48
2023/08/05 06:36:32;;;;;;;9.07;3.38;;;16.30;87.50;;;;;;5074802;28;20044;-50
2023/08/05 06:38:58;;;;;;;7.50;3.65;;;16.30;87.40;;;;;;5075114;28;20098;-50
2023/08/05 06:41:25;;;;;;;6.00;3.20;;;16.40;87.40;;;;;;5075362;28;20033;-49
2023/08/05 06:43:52;;;;;;;10.02;4.40;;;16.50;87.10;;;;;;5074356;28;20039;-49
2023/08/05 06:46:19;;;;;;;7.00;3.28;;;16.60;87.10;;;;;;5075208;28;20390;-49
2023/08/05 06:48:46;;;;;;;6.13;2.90;;;16.70;86.30;;;;;;5074479;28;20643;-49
2023/08/05 06:51:13;;;;;;;4.68;3.03;;;16.80;85.50;;;;;;5074982;28;20084;-49
2023/08/05 06:53:44;;;;;;;4.22;3.10;;;16.90;84.30;;;;;;5057090;28;20529;-53
2023/08/05 06:56:11;;;;;;;7.13;2.83;;;16.90;83.40;;;;;;5074239;28;20040;-49
2023/08/05 06:58:38;;;;;;;5.35;2.28;;;16.90;82.90;;;;;;5074118;28;20025;-51
2023/08/05 07:01:07;;;;;;;7.13;3.40;;;17.00;82.80;;;;;;5074809;28;20024;-50
2023/08/05 07:03:34;;;;;;;5.25;2.55;;;17.10;82.50;;;;;;5074703;28;20104;-49
2023/08/05 07:06:00;;;;;;;6.07;2.17;;;17.10;82.50;;;;;;5074731;28;20028;-49
2023/08/05 07:08:29;;;;;;;8.27;2.90;;;17.20;82.10;;;;;;5074129;28;20086;-48
2023/08/05 07:11:01;;;;;;;4.13;2.03;;;17.20;81.40;;;;;;5056933;28;20037;-50
2023/08/05 07:13:27;;;;;;;5.32;2.60;;;17.20;81.30;;;;;;5074550;28;20078;-52
2023/08/05 07:16:04;;;;;;;4.40;2.70;;;17.20;80.80;;;;;;5073876;28;20399;-52
2023/08/05 07:18:33;;;;;;;4.47;2.33;;;17.20;81.00;;;;;;5074663;28;20107;-51
2023/08/05 07:21:02;;;;;;;5.07;2.33;;;17.20;80.90;;;;;;5073829;28;20039;-50
2023/08/05 07:23:29;;;;;;;4.05;2.78;;;17.30;81.10;;;;;;5074225;28;20263;-51
2023/08/05 07:26:00;;;;;;;4.40;2.05;;;17.40;80.70;;;;;;5074170;28;20035;-51
2023/08/05 07:28:27;;;;;;;2.92;2.05;;;17.60;80.10;;;;;;5074279;28;20016;-49
2023/08/05 07:31:05;;;;;;;4.10;1.85;;;17.70;78.80;;;;;;5073719;28;20108;-49
2023/08/05 07:33:32;;;;;;;4.35;1.90;;;17.90;77.20;;;;;;5073931;28;20028;-50
2023/08/05 07:36:11;;;;;;;3.33;1.90;;;18.00;76.20;;;;;;5073989;28;20095;-48
2023/08/05 07:38:39;;;;;;;4.55;1.80;;;18.20;75.90;;;;;;5073552;28;20381;-48
2023/08/05 07:41:06;;;;;;;4.03;1.63;;;18.40;74.20;;;;;;5056341;28;20067;-49
2023/08/05 07:43:36;;;;;;;3.85;2.60;;;18.40;74.80;;;;;;5073607;28;20021;-50
2023/08/05 07:46:11;;;;;;;3.47;1.55;;;18.60;74.80;;;;;;5072236;28;20017;-49
2023/08/05 07:48:39;;;;;;;5.45;2.50;;;18.80;73.80;;;;;;5073867;28;20039;-51
2023/08/05 07:51:06;;;;;;;4.75;1.98;;;19.00;74.00;;;;;;5072817;28;20070;-50
2023/08/05 07:53:35;;;;;;;3.20;1.98;;;19.40;72.60;;;;;;5073678;28;20039;-49
2023/08/05 07:56:12;;;;;;;3.63;1.52;;;19.60;70.40;;;;;;5073694;28;20024;-49
2023/08/05 07:58:45;;;;;;;3.63;1.25;;;19.70;69.70;;;;;;5073811;28;20021;-50
2023/08/05 08:01:17;;;;;;;3.63;1.67;;;19.90;68.90;;;;;;5073078;28;20373;-51
2023/08/05 08:03:47;;;;;;;5.18;2.05;;;20.30;68.00;;;;;;5073624;28;20063;-51
2023/08/05 08:06:18;;;;;;;5.32;1.95;;;20.60;67.70;;;;;;5072677;28;20024;-50
2023/08/05 08:08:43;;;;;;;4.65;1.70;;;21.00;69.20;;;;;;5073479;28;20021;-50
2023/08/05 08:11:11;;;;;;;7.53;1.98;;;21.10;65.00;;;;;;5073423;28;20480;-49
2023/08/05 08:13:41;;;;;;;3.67;1.55;;;21.60;67.50;;;;;;5072969;28;20048;-49
2023/08/05 08:16:08;;;;;;;2.78;1.52;;;21.90;62.10;;;;;;5072986;28;20035;-49
2023/08/05 08:18:37;;;;;;;5.90;2.00;;;21.50;62.70;;;;;;5073011;28;20077;-49
2023/08/05 08:21:07;;;;;;;7.57;2.17;;;21.60;62.90;;;;;;5054901;28;20373;-50
2023/08/05 08:23:32;;;;;;;;;;;21.80;63.70;;;;;;5073439;28;20107;-51
2023/08/05 08:25:59;;;;;;;3.97;1.50;;;22.00;62.40;;;;;;5055322;28;20404;-48
2023/08/05 08:28:27;;;;;;;3.10;1.42;;;22.00;61.50;;;;;;5050666;28;20103;-49
2023/08/05 08:30:57;;;;;;;3.35;1.38;;;21.90;60.60;;;;;;5052763;28;20020;-49
2023/08/05 08:33:28;;;;;;;4.32;1.83;;;21.70;61.00;;;;;;5061699;28;20111;-51
2023/08/05 08:35:57;;;;;;;3.30;1.58;;;21.70;62.60;;;;;;5051255;28;20049;-52
2023/08/05 08:38:25;;;;;;;7.03;1.65;;;21.60;64.00;;;;;;5068960;28;20036;-49
2023/08/05 08:40:57;;;;;;;3.50;1.92;;;21.60;64.90;;;;;;5071650;28;20033;-49
2023/08/05 08:43:22;;;;;;;3.75;1.58;;;21.70;65.40;;;;;;5072473;28;20024;-50
2023/08/05 08:45:53;;;;;;;3.30;1.50;;;21.70;63.30;;;;;;5054449;28;20033;-53
2023/08/05 08:48:20;;;;;;;4.68;1.60;;;21.60;63.30;;;;;;5072356;28;20081;-50
2023/08/05 08:50:48;;;;;;;3.60;1.60;;;21.30;64.40;;;;;;5072198;28;20040;-49
2023/08/05 08:53:15;;;;;;;4.28;1.80;;;21.10;64.80;;;;;;5071365;28;20484;-50
2023/08/05 08:55:41;;;;;;;5.57;1.80;;;20.80;66.70;;;;;;5072200;28;20477;-49
2023/08/05 08:58:08;;;;;;;4.88;1.58;;;20.80;67.10;;;;;;5071988;28;20043;-49
2023/08/05 09:00:37;;;;;;;6.05;2.08;;;20.80;67.20;;;;;;5071996;28;20448;-49
2023/08/05 09:03:06;;;;;;;3.70;2.05;;;20.50;67.50;;;;;;5071097;28;20464;-49
2023/08/05 09:05:58;;;;;;;7.30;1.73;;;20.40;67.50;;;;;;5054304;28;20044;-52
2023/08/05 09:08:26;;;;;;;3.83;1.55;;;20.40;66.30;;;;;;5060495;28;20043;-52
2023/08/05 09:10:53;;;;;;;3.45;2.13;;;20.60;65.60;;;;;;5054074;28;20361;-50
2023/08/05 09:13:21;;;;;;;2.70;1.45;;;20.80;67.60;;;;;;5072523;28;20043;-53
2023/08/05 09:15:48;;;;;;;2.83;1.60;;;20.40;65.50;;;;;;5053271;28;20090;-50
2023/08/05 09:18:15;;;;;;;5.55;2.45;;;20.90;67.70;;;;;;5071945;28;20028;-49
2023/08/05 09:20:41;;;;;;;4.85;1.88;;;21.00;65.70;;;;;;5053830;28;20025;-50
2023/08/05 09:23:10;;;;;;;5.38;2.40;;;21.40;65.20;;;;;;5071925;28;20024;-50
2023/08/05 09:25:44;;;;;;;4.13;1.63;;;22.00;65.50;;;;;;5071460;28;20020;-50
2023/08/05 09:28:10;;;;;;;4.68;2.45;;;22.30;63.00;;;;;;5071976;28;20077;-49
2023/08/05 09:30:38;;;;;;;4.50;1.95;;;22.40;63.20;;;;;;5071907;28;20591;-51
2023/08/05 09:33:06;;;;;;;4.00;1.80;;;22.50;62.10;;;;;;5072277;28;20035;-50
2023/08/05 09:35:33;;;;;;;4.97;2.03;;;22.40;60.80;;;;;;5071383;28;20056;-55
2023/08/05 09:38:01;;;;;;;3.03;1.90;;;22.40;61.90;;;;;;5072670;28;20028;-51
2023/08/05 09:40:48;;;;;;;3.20;1.70;;;22.40;63.30;;;;;;5072412;28;20377;-55
2023/08/05 09:43:14;;;;;;;4.43;1.95;;;22.10;61.80;;;;;;5071428;28;20043;-51
2023/08/05 09:45:43;;;;;;;3.90;1.42;;;22.20;62.40;;;;;;5072292;28;20028;-51
2023/08/05 09:48:13;;;;;;;6.30;1.75;;;22.50;63.10;;;;;;5071848;28;20032;-50
2023/08/05 09:50:40;;;;;;;;;;;22.90;60.30;;;;;;5072781;28;20108;-51
2023/08/05 09:53:10;;;;;;;5.28;1.90;;;23.00;58.70;;;;;;5072453;28;19950;-50
2023/08/05 09:55:37;;;;;;;4.78;1.10;;;22.70;59.10;;;;;;5038176;28;20453;-51
2023/08/05 09:58:07;;;;;;;4.07;1.70;;;22.40;60.30;;;;;;5053199;28;20461;-50
2023/08/05 10:00:40;;;;;;;4.20;2.33;;;22.40;62.10;;;;;;5071274;28;20025;-54
2023/08/05 10:03:14;;;;;;;6.47;1.65;;;22.80;62.60;;;;;;5072124;28;20016;-52
2023/08/05 10:05:44;;;;;;;6.38;1.95;;;22.70;61.90;;;;;;5070526;28;20031;-52
2023/08/05 10:08:13;;;;;;;5.97;2.72;;;22.40;60.40;;;;;;5073120;28;20115;-50
2023/08/05 10:10:41;;;;;;;3.20;1.80;;;21.90;61.60;;;;;;5075845;28;20565;-50
2023/08/05 10:13:20;;;;;;;4.65;2.15;;;21.90;62.50;;;;;;5050118;28;20203;-50
2023/08/05 10:15:55;;;;;;;3.50;1.83;;;22.40;66.70;;;;;;5055667;28;20491;-50
2023/08/05 10:18:21;;;;;;;4.88;1.63;;;22.60;59.30;;;;;;5038007;28;20029;-50
2023/08/05 10:20:54;;;;;;;5.40;2.00;;;22.20;61.20;;;;;;5073717;28;20036;-53
2023/08/05 10:23:25;;;;;;;3.95;1.88;;;22.00;60.60;;;;;;5075654;28;20116;-51
2023/08/05 10:25:59;;;;;;;6.05;1.70;;;22.00;62.70;;;;;;5057883;28;20028;-49
2023/08/05 10:28:44;;;;;;;3.42;1.67;;;22.40;60.40;;;;;;5074698;28;20044;-52
2023/08/05 10:31:28;;;;;;;4.72;1.88;;;22.40;60.20;;;;;;5057712;28;20430;-50
2023/08/05 10:34:12;;;;;;;5.22;2.17;;;22.10;60.20;;;;;;5074192;28;20060;-53
2023/08/05 10:36:45;;;;;;;5.30;2.95;;;22.70;63.40;;;;;;5057461;28;20460;-51
2023/08/05 10:39:48;;;;;;;4.95;1.80;;;23.00;61.10;;;;;;5074419;28;20036;-51
2023/08/05 10:42:34;;;;;;;5.65;1.83;;;23.40;60.80;;;;;;5057524;28;20445;-52
2023/08/05 10:45:04;;;;;;;4.95;2.25;;;23.60;57.50;;;;;;5074731;28;20050;-50
2023/08/05 10:47:32;;;;;;;4.50;1.80;;;23.60;57.30;;;;;;5075229;28;20116;-54
2023/08/05 10:50:00;;;;;;;3.90;2.25;;;23.90;56.00;;;;;;5075026;28;20020;-51
2023/08/05 10:52:28;;;;;;;6.32;2.22;;;23.90;57.80;;;;;;5057165;28;20056;-54
2023/08/05 10:54:54;;;;;;;3.25;1.63;;;23.90;58.40;;;;;;5073452;28;20021;-51
2023/08/05 10:57:41;;;;;;;3.33;2.20;;;23.80;58.70;;;;;;5074518;28;20497;-50
2023/08/05 11:00:21;;;;;;;4.68;1.63;;;23.50;56.50;;;;;;5074077;28;20382;-51
2023/08/05 11:02:49;;;;;;;3.63;1.70;;;23.50;58.80;;;;;;5074676;28;20032;-50
2023/08/05 11:05:16;;;;;;;3.05;1.55;;;23.50;59.00;;;;;;5057438;28;20100;-54
2023/08/05 11:07:42;;;;;;;3.42;1.40;;;23.30;58.00;;;;;;5073924;28;20028;-51
2023/08/05 11:10:10;;;;;;;5.82;2.97;;;22.70;58.70;;;;;;5055687;28;20028;-50
2023/08/05 11:12:39;;;;;;;4.75;1.77;;;22.20;58.40;;;;;;5074856;28;20032;-51
2023/08/05 11:15:07;;;;;;;5.00;1.63;;;21.90;60.10;;;;;;5074736;28;20374;-51
2023/08/05 11:17:51;;;;;;;4.07;1.73;;;21.70;60.80;;;;;;5074350;28;20024;-50
2023/08/05 11:20:18;;;;;;;4.05;1.58;;;21.60;60.70;;;;;;5073295;28;20024;-51
2023/08/05 11:22:49;;;;;;;3.47;1.83;;;21.40;60.90;;;;;;5056817;28;20052;-50
2023/08/05 11:25:18;;;;;;;3.97;1.77;;;21.20;61.80;;;;;;5073699;28;20162;-54
2023/08/05 11:27:51;;;;;;;3.38;2.10;;;21.10;62.40;;;;;;5074435;28;20342;-52
2023/08/05 11:30:20;;;;;;;3.95;1.77;;;21.00;61.10;;;;;;5074470;28;20526;-51
2023/08/05 11:32:55;;;;;;;4.43;1.75;;;20.90;61.50;;;;;;5073780;28;20025;-52
2023/08/05 11:35:26;;;;;;;3.70;1.50;;;21.00;61.00;;;;;;5036409;28;20056;-50
2023/08/05 11:37:52;;;;;;;6.40;1.90;;;21.40;61.90;;;;;;5054027;28;20017;-52
2023/08/05 11:40:19;;;;;;;3.10;1.65;;;21.70;58.50;;;;;;5054164;28;20381;-52
2023/08/05 11:42:46;;;;;;;3.90;1.70;;;22.00;60.20;;;;;;5061839;28;20638;-51
2023/08/05 11:45:15;;;;;;;7.85;2.53;;;22.40;59.70;;;;;;5056473;28;20031;-49
2023/08/05 11:47:47;;;;;;;3.70;1.85;;;22.80;58.90;;;;;;5073699;28;20047;-55
2023/08/05 11:50:14;;;;;;;3.20;1.73;;;23.00;57.60;;;;;;5073992;28;20434;-51
2023/08/05 11:52:42;;;;;;;4.82;1.90;;;23.20;57.10;;;;;;5073292;28;20043;-51
2023/08/05 11:55:09;;;;;;;5.30;2.13;;;23.40;57.00;;;;;;5074207;28;20021;-51
2023/08/05 11:57:39;;;;;;;2.80;1.50;;;23.50;56.90;;;;;;5074129;28;20047;-53
2023/08/05 12:00:09;;;;;;;4.05;1.95;;;23.50;56.20;;;;;;5055775;28;20032;-50
2023/08/05 12:02:37;;;;;;;4.07;1.42;;;23.60;55.40;;;;;;5072685;28;20040;-52
2023/08/05 12:05:04;;;;;;;5.18;1.70;;;23.40;55.20;;;;;;5073729;28;20101;-51
2023/08/05 12:07:30;;;;;;;3.50;1.55;;;23.30;55.70;;;;;;5073401;28;20025;-52
2023/08/05 12:10:07;;;;;;;4.43;1.92;;;23.40;57.50;;;;;;5073362;28;20056;-54
2023/08/05 12:12:35;;;;;;;3.90;2.08;;;23.90;57.00;;;;;;5073637;28;20017;-51
2023/08/05 12:15:24;;;;;;;3.50;1.67;;;23.80;54.10;;;;;;5073339;28;20526;-51
2023/08/05 12:17:55;;;;;;;3.10;1.83;;;23.40;54.50;;;;;;5053497;28;20033;-52
2023/08/05 12:20:39;;;;;;;2.80;1.50;;;23.10;54.90;;;;;;5036996;28;20098;-52
2023/08/05 12:23:06;;;;;;;2.22;1.30;;;22.90;56.50;;;;;;5053476;28;20033;-55
2023/08/05 12:25:32;;;;;;;4.55;1.70;;;22.80;58.60;;;;;;5053084;28;20060;-51
2023/08/05 12:27:59;;;;;;;4.70;2.13;;;22.50;56.30;;;;;;5053202;28;20076;-55
2023/08/05 12:30:27;;;;;;;3.65;1.60;;;22.30;57.10;;;;;;5063389;28;20025;-50
2023/08/05 12:32:58;;;;;;;6.00;1.80;;;22.30;58.00;;;;;;5055542;28;20032;-55
2023/08/05 12:35:25;;;;;;;3.75;1.73;;;22.20;57.20;;;;;;5072922;28;20087;-52
2023/08/05 12:37:52;;;;;;;5.03;1.80;;;22.30;58.70;;;;;;5072588;28;20345;-50
2023/08/05 12:40:18;;;;;;;4.25;2.20;;;22.40;57.30;;;;;;5072932;28;20103;-53
2023/08/05 12:42:44;;;;;;;7.07;2.25;;;22.50;58.40;;;;;;5072963;28;20024;-50
2023/08/05 12:45:11;;;;;;;3.10;1.55;;;22.80;56.70;;;;;;5073127;28;20457;-50
2023/08/05 12:47:41;;;;;;;5.05;1.85;;;22.80;57.20;;;;;;5070052;28;20133;-50
2023/08/05 12:50:11;;;;;;;6.22;1.98;;;22.90;58.60;;;;;;5072820;28;20056;-53
2023/08/05 12:52:38;;;;;;;4.93;1.73;;;23.00;55.70;;;;;;5072593;28;20025;-51
2023/08/05 12:55:06;;;;;;;3.97;1.60;;;23.00;57.60;;;;;;5072673;28;20029;-51
2023/08/05 12:57:32;;;;;;;4.88;1.90;;;23.10;57.30;;;;;;5072901;28;20017;-52